Decoded Metar for EIKY (KERRY in IRELAND) (IATA:KIR) | Meteo·Mobile Aviation Weather
aviador You're here:

EIKY Decoded Metar

KERRY in IRELAND
Report Time2019-02-18 10:30:00
UTC Time2019-02-18 11:04:04
Flight Rules vfr VFR
Wind250° at 10 kt
W.Decomp.*RWY 26: 10.0 kt HW 0.5 kt LCW
W.Rank250° ranks 3
Current wind is below 250° avg. (10.8)
Visibility9999 m
Phenomena:Rain
Clouds:Few 014 Hf
Scattered 020 Hf
Expected CloudBase > 1,200 ft AGL from Temp-Dew spread
CeilingNone
Temp08°C (ISA -7)
Dew Point05°C (82% RH)
AAT3.3°C
QNH1010 hPa
Density Alt-482 ft
Elevation111 ft
Report Wrong Elevation
Raw Report
METAR EIKY 181030Z 25010KT 9999 RA FEW014 SCT020 08/05 Q1010=

Extra information for EIKY:More info

Metar Taf Metar & Taf Last 4 Metars F.Rules Stats Wind Profile Meteogram Temp Stats Airport Information Weather charts Add Link Nearby VenuesMetar ALERT Operation Metar Decoded Social comments